Time;durP1;ratioP1;P1;durP2;ratioP2;P2;SDS_P1;SDS_P2;PMS_P1;PMS_P2;Temp;Humidity;BMP_temperature;BMP_pressure;BME280_temperature;BME280_humidity;BME280_pressure;Samples;Min_cycle;Max_cycle;Signal;HPM_P1;HPM_P2
2023/09/01 00:02:24;;;;;;;14.82;7.57;;;16.00;99.90;;;;;;4899880;29;20031;-71
2023/09/01 00:04:50;;;;;;;11.65;7.03;;;16.00;99.90;;;;;;4900832;29;20032;-71
2023/09/01 00:07:15;;;;;;;12.23;7.30;;;16.00;99.90;;;;;;4901484;29;20381;-71
2023/09/01 00:09:41;;;;;;;11.73;7.43;;;15.90;99.90;;;;;;4901031;29;20035;-70
2023/09/01 00:12:07;;;;;;;15.15;7.53;;;15.90;99.90;;;;;;4900777;29;20491;-71
2023/09/01 00:14:32;;;;;;;12.07;7.40;;;16.00;99.90;;;;;;4900549;29;20036;-71
2023/09/01 00:16:58;;;;;;;12.45;7.18;;;16.00;99.90;;;;;;4898581;29;20156;-72
2023/09/01 00:19:24;;;;;;;12.30;6.68;;;16.00;99.90;;;;;;4900085;29;20491;-71
2023/09/01 00:21:50;;;;;;;10.52;6.65;;;15.90;99.90;;;;;;4895589;29;20098;-71
2023/09/01 00:24:16;;;;;;;11.23;6.72;;;15.90;99.90;;;;;;4899879;29;20036;-71
2023/09/01 00:26:41;;;;;;;11.02;6.55;;;15.90;99.90;;;;;;4895423;29;20156;-71
2023/09/01 00:29:07;;;;;;;10.02;6.35;;;15.90;99.90;;;;;;4912268;29;20032;-71
2023/09/01 00:31:35;;;;;;;10.07;5.60;;;15.90;99.90;;;;;;4897562;29;20032;-71
2023/09/01 00:34:02;;;;;;;11.80;6.93;;;15.90;99.90;;;;;;4897964;29;20088;-71
2023/09/01 00:36:27;;;;;;;14.65;6.75;;;16.00;99.90;;;;;;4912192;29;20139;-71
2023/09/01 00:38:54;;;;;;;11.95;6.78;;;16.00;99.90;;;;;;4886132;29;20036;-71
2023/09/01 00:41:19;;;;;;;10.85;6.65;;;16.00;99.90;;;;;;4900599;29;20635;-71
2023/09/01 00:43:45;;;;;;;11.10;6.95;;;16.00;99.90;;;;;;4901959;29;20040;-71
2023/09/01 00:46:11;;;;;;;12.82;6.55;;;16.00;99.90;;;;;;4901058;29;20087;-72
2023/09/01 00:48:37;;;;;;;14.93;7.05;;;15.90;99.90;;;;;;4898057;29;20052;-71
2023/09/01 00:51:03;;;;;;;12.23;7.03;;;16.00;99.90;;;;;;4901589;29;20051;-71
2023/09/01 00:53:29;;;;;;;11.15;6.57;;;15.90;99.90;;;;;;4902168;29;20032;-71
2023/09/01 00:55:57;;;;;;;10.95;6.20;;;15.90;99.90;;;;;;4900535;29;20028;-71
2023/09/01 00:58:25;;;;;;;9.05;5.57;;;15.90;99.90;;;;;;4915034;29;20215;-71
2023/09/01 01:00:52;;;;;;;12.18;7.13;;;15.90;99.90;;;;;;4900427;29;20040;-71
2023/09/01 01:03:17;;;;;;;12.60;6.40;;;15.90;99.90;;;;;;4898062;29;20396;-71
2023/09/01 01:05:55;;;;;;;10.63;6.50;;;15.90;99.90;;;;;;4898261;29;20036;-71
2023/09/01 01:09:15;;;;;;;10.93;6.25;;;16.00;99.90;;;;;;4901370;29;20036;-71
2023/09/01 01:12:01;;;;;;;10.82;6.18;;;16.00;99.90;;;;;;4874514;29;20365;-71
2023/09/01 01:14:39;;;;;;;14.02;6.10;;;16.00;99.90;;;;;;4896334;29;20048;-71
2023/09/01 01:17:06;;;;;;;10.57;5.28;;;16.00;99.90;;;;;;4896957;29;20028;-71
2023/09/01 01:19:45;;;;;;;10.60;5.72;;;16.10;99.90;;;;;;4897861;29;20044;-71
2023/09/01 01:22:12;;;;;;;12.70;6.00;;;16.10;99.90;;;;;;4894322;29;20472;-71
2023/09/01 01:24:37;;;;;;;11.20;5.88;;;16.10;99.90;;;;;;4899308;29;20268;-71
2023/09/01 01:27:03;;;;;;;9.48;5.25;;;16.10;99.90;;;;;;4899292;29;20088;-70
2023/09/01 01:29:29;;;;;;;8.95;4.90;;;16.10;99.90;;;;;;4887817;29;20032;-72
2023/09/01 01:31:57;;;;;;;8.27;4.57;;;16.20;99.90;;;;;;4896807;29;20484;-72
2023/09/01 01:34:46;;;;;;;8.48;4.32;;;16.30;99.90;;;;;;4894060;29;20063;-71
2023/09/01 01:37:32;;;;;;;5.95;3.85;;;16.30;99.90;;;;;;4895528;29;20114;-72
2023/09/01 01:40:02;;;;;;;9.02;4.93;;;16.30;99.90;;;;;;4901298;29;20516;-71
2023/09/01 01:42:29;;;;;;;11.35;4.07;;;16.40;99.90;;;;;;4899436;29;20147;-71
2023/09/01 01:44:58;;;;;;;11.13;4.85;;;16.40;99.90;;;;;;4900478;29;20024;-71
2023/09/01 01:47:24;;;;;;;11.55;5.03;;;16.40;99.90;;;;;;4900813;29;20415;-71
2023/09/01 01:49:49;;;;;;;8.48;4.63;;;16.30;99.90;;;;;;4898228;29;20059;-71
2023/09/01 01:52:15;;;;;;;8.68;3.75;;;16.40;99.90;;;;;;4901182;29;20032;-72
2023/09/01 01:54:41;;;;;;;9.48;4.00;;;16.40;99.90;;;;;;4902659;29;20111;-72
2023/09/01 01:57:10;;;;;;;7.43;3.03;;;16.40;99.90;;;;;;4899023;29;20040;-72
2023/09/01 01:59:36;;;;;;;6.60;2.50;;;16.40;99.90;;;;;;4899247;29;20035;-71
2023/09/01 02:02:05;;;;;;;5.32;3.00;;;16.40;99.90;;;;;;4901120;29;20040;-71
2023/09/01 02:04:31;;;;;;;4.65;2.67;;;16.40;99.90;;;;;;4901826;29;20123;-71
2023/09/01 02:06:57;;;;;;;4.18;2.30;;;16.50;99.90;;;;;;4898839;29;20111;-71
2023/09/01 02:09:22;;;;;;;6.03;2.40;;;16.50;99.90;;;;;;4898913;29;20064;-71
2023/09/01 02:11:48;;;;;;;5.40;2.92;;;16.50;99.90;;;;;;4901564;29;20584;-71
2023/09/01 02:14:14;;;;;;;6.22;2.60;;;16.50;99.90;;;;;;4902905;29;20087;-71
2023/09/01 02:16:39;;;;;;;4.10;2.50;;;16.50;99.90;;;;;;4899819;29;20449;-71
2023/09/01 02:19:09;;;;;;;6.03;2.60;;;16.50;99.90;;;;;;4905232;29;20449;-71
2023/09/01 02:21:34;;;;;;;9.30;2.80;;;16.50;99.90;;;;;;4903074;29;20075;-71
2023/09/01 02:24:00;;;;;;;5.45;3.05;;;16.50;99.90;;;;;;4902951;29;20050;-71
2023/09/01 02:26:26;;;;;;;4.05;2.10;;;16.50;99.90;;;;;;4899110;29;20028;-70
2023/09/01 02:28:51;;;;;;;5.80;2.42;;;16.60;99.90;;;;;;4902066;29;20048;-71
2023/09/01 02:31:17;;;;;;;4.03;2.45;;;16.60;99.90;;;;;;4898518;29;20280;-70
2023/09/01 02:33:43;;;;;;;5.72;2.70;;;16.60;99.90;;;;;;4898571;29;20043;-71
2023/09/01 02:36:32;;;;;;;3.80;2.22;;;16.60;99.90;;;;;;4901140;29;20385;-71
2023/09/01 02:38:58;;;;;;;3.33;2.20;;;16.60;99.90;;;;;;4902873;29;20530;-71
2023/09/01 02:41:25;;;;;;;6.85;2.95;;;16.60;99.90;;;;;;4900291;29;20536;-72
2023/09/01 02:43:51;;;;;;;4.82;2.92;;;16.70;99.90;;;;;;4904284;29;20370;-71
2023/09/01 02:46:17;;;;;;;6.18;2.65;;;16.70;99.90;;;;;;4900861;29;20075;-71
2023/09/01 02:48:43;;;;;;;4.78;2.60;;;16.60;99.90;;;;;;4903869;29;20056;-72
2023/09/01 02:51:09;;;;;;;4.68;2.60;;;16.60;99.90;;;;;;4903333;29;20138;-71
2023/09/01 02:53:35;;;;;;;5.20;2.28;;;16.60;99.90;;;;;;4902059;29;20035;-71
2023/09/01 02:56:02;;;;;;;5.32;2.60;;;16.60;99.90;;;;;;4901018;29;20429;-72
2023/09/01 02:58:28;;;;;;;7.28;2.40;;;16.60;99.90;;;;;;4902866;29;20036;-72
2023/09/01 03:00:54;;;;;;;4.55;2.58;;;16.60;99.90;;;;;;4900417;29;20078;-72
2023/09/01 03:03:20;;;;;;;4.47;2.78;;;16.70;99.90;;;;;;4902658;29;20032;-71
2023/09/01 03:05:48;;;;;;;4.55;2.58;;;16.60;99.90;;;;;;4903533;29;20036;-72
2023/09/01 03:08:14;;;;;;;3.63;2.60;;;16.60;99.90;;;;;;4903414;29;20100;-72
2023/09/01 03:10:40;;;;;;;3.03;2.17;;;16.60;99.90;;;;;;4900744;29;20029;-72
2023/09/01 03:13:06;;;;;;;5.60;2.40;;;16.70;99.90;;;;;;4902022;29;20112;-71
2023/09/01 03:15:32;;;;;;;2.85;1.67;;;16.60;99.90;;;;;;4903159;29;20341;-71
2023/09/01 03:17:57;;;;;;;3.05;1.38;;;16.60;99.90;;;;;;4903781;29;20055;-71
2023/09/01 03:20:24;;;;;;;4.00;0.80;;;16.70;99.90;;;;;;4903126;29;20366;-72
2023/09/01 03:22:49;;;;;;;2.70;0.88;;;16.70;99.90;;;;;;4901035;29;20198;-72
2023/09/01 03:25:15;;;;;;;2.70;0.40;;;16.70;99.90;;;;;;4902729;29;20063;-72
2023/09/01 03:27:41;;;;;;;2.90;0.60;;;16.80;99.90;;;;;;4901627;29;20052;-71
2023/09/01 03:30:07;;;;;;;1.23;0.47;;;16.80;99.90;;;;;;4902493;29;20484;-71
2023/09/01 03:32:33;;;;;;;1.00;0.32;;;16.80;99.90;;;;;;4902613;29;20445;-71
2023/09/01 03:34:59;;;;;;;2.83;0.40;;;16.90;99.90;;;;;;4901572;29;20102;-71
2023/09/01 03:37:25;;;;;;;4.13;0.50;;;16.90;99.90;;;;;;4901822;29;20043;-71
2023/09/01 03:39:51;;;;;;;2.80;0.70;;;16.90;99.90;;;;;;4902714;29;20032;-71
2023/09/01 03:42:18;;;;;;;3.95;0.60;;;16.90;99.90;;;;;;4900623;29;20035;-71
2023/09/01 03:44:43;;;;;;;2.38;0.50;;;16.90;99.90;;;;;;4902826;29;20035;-71
2023/09/01 03:47:10;;;;;;;3.63;0.73;;;17.00;99.90;;;;;;4899761;29;20116;-71
2023/09/01 03:49:36;;;;;;;5.20;0.77;;;16.90;99.90;;;;;;4901870;29;20087;-71
2023/09/01 03:52:01;;;;;;;1.42;0.70;;;17.00;99.90;;;;;;4903043;29;20105;-71
2023/09/01 03:54:27;;;;;;;2.25;0.80;;;17.00;99.90;;;;;;4903228;29;20040;-71
2023/09/01 03:56:53;;;;;;;1.25;0.52;;;17.00;99.90;;;;;;4901249;29;20043;-71
2023/09/01 03:59:19;;;;;;;2.33;0.73;;;17.10;99.90;;;;;;4901956;29;20175;-71
2023/09/01 04:01:45;;;;;;;1.20;0.80;;;17.10;99.90;;;;;;4901408;29;20236;-71
2023/09/01 04:04:11;;;;;;;4.43;1.40;;;17.10;99.90;;;;;;4901865;29;20578;-71
2023/09/01 04:06:38;;;;;;;2.60;0.90;;;17.10;99.90;;;;;;4902963;29;20031;-71
2023/09/01 04:09:08;;;;;;;2.53;1.38;;;17.20;99.90;;;;;;4900773;29;20388;-71
2023/09/01 04:11:34;;;;;;;1.95;0.77;;;17.10;99.90;;;;;;4899526;29;20048;-71
2023/09/01 04:14:00;;;;;;;2.03;0.80;;;17.20;99.90;;;;;;4902279;29;20524;-71
2023/09/01 04:16:25;;;;;;;4.18;1.27;;;17.20;99.90;;;;;;4899163;29;20028;-71
2023/09/01 04:18:51;;;;;;;1.70;1.10;;;17.20;99.90;;;;;;4896406;29;20172;-71
2023/09/01 04:21:17;;;;;;;2.22;0.98;;;17.20;99.90;;;;;;4899487;29;20043;-71
2023/09/01 04:23:43;;;;;;;1.10;0.80;;;17.10;99.90;;;;;;4902051;29;20103;-70
2023/09/01 04:26:08;;;;;;;1.20;1.00;;;17.20;99.90;;;;;;4900920;29;20035;-71
2023/09/01 04:28:34;;;;;;;0.98;0.80;;;17.20;99.90;;;;;;4901102;29;20047;-71
2023/09/01 04:31:02;;;;;;;1.83;1.02;;;17.20;99.90;;;;;;4899827;29;20040;-71
2023/09/01 04:33:29;;;;;;;1.85;0.95;;;17.20;99.90;;;;;;4897390;29;20064;-71
2023/09/01 04:36:03;;;;;;;2.88;1.10;;;17.20;99.90;;;;;;4885935;29;20191;-71
2023/09/01 04:38:29;;;;;;;4.93;1.90;;;17.20;99.90;;;;;;4893944;29;20043;-70
2023/09/01 04:40:56;;;;;;;2.10;1.60;;;17.20;99.90;;;;;;4914238;29;20028;-71
2023/09/01 04:43:25;;;;;;;3.67;2.20;;;17.20;99.90;;;;;;4901040;29;20024;-71
2023/09/01 04:45:51;;;;;;;4.35;2.40;;;17.20;99.90;;;;;;4902322;29;20036;-71
2023/09/01 04:48:17;;;;;;;3.72;2.58;;;17.20;99.90;;;;;;4900544;29;20052;-71
2023/09/01 04:50:42;;;;;;;4.10;2.53;;;17.20;99.90;;;;;;4899795;29;20532;-71
2023/09/01 04:53:09;;;;;;;4.80;2.72;;;17.20;99.90;;;;;;4900506;29;20032;-71
2023/09/01 04:55:34;;;;;;;4.07;2.63;;;17.20;99.90;;;;;;4901120;29;20087;-71
2023/09/01 04:58:00;;;;;;;3.92;2.90;;;17.20;99.90;;;;;;4899440;29;20036;-71
2023/09/01 05:00:26;;;;;;;5.18;2.88;;;17.20;99.90;;;;;;4900023;29;20123;-71
2023/09/01 05:02:51;;;;;;;4.07;2.63;;;17.20;99.90;;;;;;4897097;29;20062;-71
2023/09/01 05:05:17;;;;;;;5.60;2.40;;;17.30;99.90;;;;;;4898521;29;20103;-71
2023/09/01 05:07:43;;;;;;;3.65;2.60;;;17.30;99.90;;;;;;4898061;29;20059;-71
2023/09/01 05:10:09;;;;;;;3.25;2.25;;;17.30;99.90;;;;;;4898115;29;20311;-71
2023/09/01 05:12:35;;;;;;;3.30;2.30;;;17.30;99.90;;;;;;4896747;29;20122;-72
2023/09/01 05:15:03;;;;;;;4.47;2.10;;;17.30;99.90;;;;;;4898360;29;20114;-71
2023/09/01 05:17:29;;;;;;;4.68;2.38;;;17.30;99.90;;;;;;4897985;29;20229;-71
2023/09/01 05:19:56;;;;;;;4.40;2.28;;;17.40;99.90;;;;;;4901864;29;20032;-71
2023/09/01 05:22:21;;;;;;;5.38;2.78;;;17.40;99.90;;;;;;4898923;29;20785;-71
2023/09/01 05:24:50;;;;;;;5.03;2.47;;;17.40;99.90;;;;;;4898242;29;20063;-71
2023/09/01 05:27:19;;;;;;;3.80;2.38;;;17.40;99.90;;;;;;4898772;29;20062;-71
2023/09/01 05:29:48;;;;;;;5.07;2.63;;;17.40;99.90;;;;;;4902082;29;20763;-71
2023/09/01 05:32:15;;;;;;;5.18;2.53;;;17.40;99.90;;;;;;4904207;29;20571;-71
2023/09/01 05:34:41;;;;;;;3.90;2.10;;;17.30;99.90;;;;;;4905760;29;20046;-71
2023/09/01 05:37:08;;;;;;;4.28;2.42;;;17.40;99.90;;;;;;4905081;29;20020;-71
2023/09/01 05:39:35;;;;;;;3.88;1.92;;;17.40;99.90;;;;;;4901989;29;20028;-71
2023/09/01 05:42:00;;;;;;;3.42;2.28;;;17.40;99.90;;;;;;4898680;29;20036;-71
2023/09/01 05:44:26;;;;;;;5.68;2.15;;;17.30;99.90;;;;;;4902283;29;20038;-71
2023/09/01 05:46:51;;;;;;;2.92;2.15;;;17.30;99.90;;;;;;4902519;29;20040;-71
2023/09/01 05:49:17;;;;;;;3.60;2.60;;;17.30;99.90;;;;;;4901080;29;20408;-72
2023/09/01 05:51:43;;;;;;;4.40;2.50;;;17.30;99.90;;;;;;4900150;29;20463;-71
2023/09/01 05:54:09;;;;;;;2.60;2.17;;;17.30;99.90;;;;;;4902320;29;20035;-71
2023/09/01 05:56:34;;;;;;;6.18;2.88;;;17.40;99.90;;;;;;4900727;29;20136;-71
2023/09/01 05:59:00;;;;;;;5.32;3.08;;;17.40;99.90;;;;;;4903624;29;20044;-71
2023/09/01 06:01:26;;;;;;;4.65;3.15;;;17.40;99.90;;;;;;4898876;29;20172;-71
2023/09/01 06:03:51;;;;;;;5.00;3.28;;;17.40;99.90;;;;;;4901674;29;20401;-72
2023/09/01 06:06:17;;;;;;;31.88;28.77;;;17.50;99.90;;;;;;4902325;29;20024;-72
2023/09/01 06:08:42;;;;;;;290.75;177.95;;;17.50;99.90;;;;;;4902243;29;20043;-71
2023/09/01 06:11:09;;;;;;;29.13;19.17;;;17.60;99.90;;;;;;4900585;29;20032;-71
2023/09/01 06:13:35;;;;;;;8.52;4.90;;;17.60;99.90;;;;;;4904404;29;20032;-71
2023/09/01 06:16:04;;;;;;;11.05;7.22;;;17.70;99.90;;;;;;4902678;29;20080;-71
2023/09/01 06:18:30;;;;;;;6.72;4.78;;;17.70;99.90;;;;;;4903060;29;20187;-71
2023/09/01 06:20:55;;;;;;;5.63;3.58;;;17.80;99.90;;;;;;4902897;29;20211;-72
2023/09/01 06:23:21;;;;;;;4.07;2.50;;;17.80;99.90;;;;;;4901862;29;20102;-71
2023/09/01 06:25:46;;;;;;;4.03;3.20;;;17.80;99.90;;;;;;4894339;29;20033;-71
2023/09/01 06:28:12;;;;;;;3.80;3.08;;;17.80;99.90;;;;;;4897625;29;20558;-72
2023/09/01 06:30:40;;;;;;;4.70;2.92;;;17.80;99.90;;;;;;4896725;29;20043;-71
2023/09/01 06:33:08;;;;;;;3.40;3.00;;;17.90;99.90;;;;;;4893886;29;20032;-71
2023/09/01 06:35:33;;;;;;;6.47;4.95;;;18.00;99.90;;;;;;4897652;29;20127;-71
2023/09/01 06:38:01;;;;;;;5.00;3.80;;;18.00;99.90;;;;;;4899595;29;20115;-71
2023/09/01 06:40:26;;;;;;;4.97;3.30;;;18.10;99.90;;;;;;4902295;29;20472;-72
2023/09/01 06:42:52;;;;;;;5.13;3.75;;;18.20;99.90;;;;;;4898199;29;20040;-72
2023/09/01 06:45:17;;;;;;;6.88;4.95;;;18.20;99.90;;;;;;4895916;29;20272;-72
2023/09/01 06:47:43;;;;;;;7.00;4.63;;;18.40;99.90;;;;;;4893832;29;20144;-71
2023/09/01 06:50:09;;;;;;;6.13;3.90;;;18.50;99.90;;;;;;4901756;29;20048;-72
2023/09/01 06:52:35;;;;;;;6.03;3.45;;;18.60;99.90;;;;;;4900675;29;20035;-72
2023/09/01 06:55:00;;;;;;;4.65;2.90;;;18.60;99.90;;;;;;4900675;29;20038;-72
2023/09/01 06:57:26;;;;;;;6.82;2.72;;;18.50;99.90;;;;;;4898959;29;20028;-72
2023/09/01 06:59:51;;;;;;;6.78;3.40;;;18.60;99.90;;;;;;4900685;29;20415;-72
2023/09/01 07:02:17;;;;;;;4.68;2.97;;;18.70;99.90;;;;;;4898114;29;20644;-72
2023/09/01 07:04:42;;;;;;;4.70;2.80;;;18.70;99.90;;;;;;4895808;29;20136;-72
2023/09/01 07:07:08;;;;;;;4.82;2.90;;;18.80;99.90;;;;;;4897906;29;20046;-72
2023/09/01 07:09:34;;;;;;;3.53;2.50;;;18.80;99.90;;;;;;4901881;29;20032;-71
2023/09/01 07:12:00;;;;;;;3.70;2.40;;;18.70;99.90;;;;;;4899401;29;20341;-72
2023/09/01 07:14:25;;;;;;;3.75;2.40;;;18.70;99.90;;;;;;4901896;29;20032;-73
2023/09/01 07:16:51;;;;;;;2.70;2.13;;;18.70;99.90;;;;;;4902998;29;20031;-72
2023/09/01 07:19:16;;;;;;;3.33;1.90;;;18.70;99.90;;;;;;4902690;29;20028;-72
2023/09/01 07:21:42;;;;;;;2.30;1.50;;;18.70;99.90;;;;;;4903553;29;20449;-72
2023/09/01 07:24:08;;;;;;;5.18;2.10;;;18.80;99.90;;;;;;4902734;29;20042;-72
2023/09/01 07:26:33;;;;;;;4.22;1.60;;;19.00;99.90;;;;;;4900503;29;20515;-71
2023/09/01 07:28:59;;;;;;;2.20;1.20;;;19.20;99.90;;;;;;4903100;29;20191;-71
2023/09/01 07:31:25;;;;;;;1.30;0.70;;;19.30;99.90;;;;;;4900797;29;20028;-71
2023/09/01 07:33:50;;;;;;;2.28;0.90;;;19.40;99.90;;;;;;4901573;29;20032;-71
2023/09/01 07:36:16;;;;;;;2.00;1.00;;;19.10;99.90;;;;;;4896056;29;20065;-71
2023/09/01 07:38:42;;;;;;;4.15;0.90;;;19.20;99.90;;;;;;4892815;29;20570;-71
2023/09/01 07:41:08;;;;;;;2.05;0.77;;;19.50;99.90;;;;;;4905511;29;20131;-71
2023/09/01 07:43:34;;;;;;;1.58;0.80;;;19.50;99.90;;;;;;4894251;29;20258;-71
2023/09/01 07:46:01;;;;;;;2.78;0.77;;;19.50;99.90;;;;;;4895766;29;20456;-72
2023/09/01 07:48:26;;;;;;;3.03;0.82;;;19.50;99.90;;;;;;4891607;29;20131;-72
2023/09/01 07:50:52;;;;;;;3.13;0.88;;;19.50;99.90;;;;;;4887936;29;20024;-71
2023/09/01 07:53:18;;;;;;;3.22;0.98;;;19.40;99.90;;;;;;4894024;29;20118;-72
2023/09/01 07:55:44;;;;;;;4.65;1.00;;;19.40;99.90;;;;;;4890699;29;20043;-71
2023/09/01 07:58:09;;;;;;;3.83;0.93;;;19.60;99.90;;;;;;4891252;29;20123;-71
2023/09/01 08:00:37;;;;;;;2.00;0.90;;;19.70;99.90;;;;;;4903392;29;20032;-71
2023/09/01 08:03:03;;;;;;;3.03;1.10;;;19.60;99.90;;;;;;4904330;29;20608;-71
2023/09/01 08:05:29;;;;;;;1.48;0.65;;;19.70;99.90;;;;;;4901587;29;20035;-72
2023/09/01 08:07:54;;;;;;;1.33;0.50;;;19.50;99.90;;;;;;4901393;29;20071;-71
2023/09/01 08:10:20;;;;;;;3.13;0.50;;;19.40;99.90;;;;;;4889044;29;20044;-72
2023/09/01 08:12:46;;;;;;;0.63;0.40;;;19.20;99.90;;;;;;4888468;29;20044;-72
2023/09/01 08:15:11;;;;;;;0.77;0.25;;;19.20;99.90;;;;;;4892994;29;20024;-72
2023/09/01 08:17:37;;;;;;;0.82;0.28;;;19.20;99.90;;;;;;4896226;29;20534;-72
2023/09/01 08:20:04;;;;;;;0.88;0.30;;;19.30;99.90;;;;;;4892159;29;20032;-72
2023/09/01 08:22:31;;;;;;;0.63;0.30;;;19.50;99.90;;;;;;4895422;29;20172;-72
2023/09/01 08:24:57;;;;;;;1.63;0.30;;;19.80;99.90;;;;;;4897084;29;20461;-71
2023/09/01 08:27:22;;;;;;;0.73;0.20;;;20.00;99.90;;;;;;4895390;29;20188;-71
2023/09/01 08:29:48;;;;;;;3.08;0.45;;;20.00;99.90;;;;;;4897209;29;20091;-71
2023/09/01 08:32:13;;;;;;;0.95;0.28;;;19.90;99.90;;;;;;4879569;29;20307;-71
2023/09/01 08:34:39;;;;;;;3.90;0.30;;;19.80;99.90;;;;;;4891059;29;20044;-71
2023/09/01 08:37:05;;;;;;;2.25;0.30;;;19.60;99.90;;;;;;4884776;29;20028;-70
2023/09/01 08:39:32;;;;;;;2.20;0.50;;;19.90;99.90;;;;;;4898160;29;20032;-71
2023/09/01 08:41:59;;;;;;;2.20;0.30;;;20.00;99.90;;;;;;4891090;29;20086;-71
2023/09/01 08:44:27;;;;;;;1.45;0.40;;;20.20;99.90;;;;;;4896760;29;20385;-69
2023/09/01 08:46:55;;;;;;;1.73;0.20;;;20.10;99.90;;;;;;4895320;29;20480;-71
2023/09/01 08:49:22;;;;;;;0.57;0.38;;;20.00;99.90;;;;;;4897837;29;20401;-71
2023/09/01 08:51:48;;;;;;;3.08;0.40;;;20.10;99.90;;;;;;4900446;29;20039;-71
2023/09/01 08:54:17;;;;;;;3.22;0.30;;;20.20;99.90;;;;;;4899988;29;20040;-71
2023/09/01 08:56:43;;;;;;;3.85;0.52;;;20.30;99.90;;;;;;4899681;29;20642;-71
2023/09/01 08:59:09;;;;;;;4.63;0.65;;;20.30;99.90;;;;;;4899803;29;20076;-71
2023/09/01 09:01:37;;;;;;;0.68;0.30;;;20.80;99.90;;;;;;4901285;29;20047;-71
2023/09/01 09:04:04;;;;;;;1.92;0.30;;;21.30;99.90;;;;;;4904391;29;20107;-71
2023/09/01 09:06:35;;;;;;;0.50;0.17;;;21.90;99.90;;;;;;4905806;29;20024;-71
2023/09/01 09:09:14;;;;;;;1.75;0.30;;;22.20;99.90;;;;;;4902917;29;20036;-71
2023/09/01 09:11:57;;;;;;;2.50;0.32;;;22.80;99.90;;;;;;4903429;29;20024;-71
2023/09/01 09:14:24;;;;;;;2.22;0.20;;;23.30;99.90;;;;;;4905098;29;20036;-71
2023/09/01 09:16:57;;;;;;;2.90;0.30;;;23.50;99.90;;;;;;4903952;29;20028;-71
2023/09/01 09:19:24;;;;;;;1.20;0.13;;;23.70;99.90;;;;;;4904807;29;20035;-71
2023/09/01 09:22:11;;;;;;;0.63;0.20;;;23.70;99.90;;;;;;4905424;29;20104;-71
2023/09/01 09:24:37;;;;;;;1.55;0.17;;;23.20;99.90;;;;;;4885694;29;20028;-71
2023/09/01 09:27:05;;;;;;;0.68;0.20;;;22.80;99.90;;;;;;4897711;29;20713;-71
2023/09/01 09:29:41;;;;;;;0.93;0.30;;;22.40;99.90;;;;;;4895140;29;20067;-72
2023/09/01 09:32:20;;;;;;;0.70;0.30;;;21.90;99.90;;;;;;4899731;29;20028;-72
2023/09/01 09:35:05;;;;;;;2.22;0.30;;;22.20;99.90;;;;;;4900712;29;20589;-70
2023/09/01 09:37:33;;;;;;;2.28;0.30;;;22.80;99.90;;;;;;4903593;29;20040;-70
2023/09/01 09:40:16;;;;;;;2.65;0.20;;;23.20;99.90;;;;;;4903276;29;20024;-70
2023/09/01 09:42:43;;;;;;;1.33;0.25;;;23.70;99.90;;;;;;4898840;29;20119;-72
2023/09/01 09:45:32;;;;;;;0.63;0.10;;;24.10;99.90;;;;;;4916481;29;20024;-69
2023/09/01 09:48:04;;;;;;;0.88;0.15;;;25.30;99.90;;;;;;4902406;29;20048;-70
2023/09/01 09:50:30;;;;;;;0.40;0.10;;;26.10;99.90;;;;;;4898806;29;20043;-70
2023/09/01 09:53:03;;;;;;;1.00;0.30;;;26.70;99.90;;;;;;4898873;29;20123;-70
2023/09/01 09:55:31;;;;;;;1.17;0.20;;;27.60;99.90;;;;;;4899639;29;20087;-70
2023/09/01 09:58:07;;;;;;;1.00;0.20;;;27.70;99.90;;;;;;4898051;29;20448;-70
2023/09/01 10:00:44;;;;;;;1.75;0.40;;;27.50;99.90;;;;;;4902611;29;20055;-70
2023/09/01 10:03:10;;;;;;;1.25;0.60;;;27.00;99.90;;;;;;4896867;29;20087;-72
2023/09/01 10:05:35;;;;;;;1.02;0.40;;;26.50;99.90;;;;;;4893203;29;20612;-70
2023/09/01 10:08:03;;;;;;;2.35;0.80;;;26.60;99.90;;;;;;4892300;29;20050;-71
2023/09/01 10:10:31;;;;;;;3.13;1.02;;;26.70;99.90;;;;;;4892758;29;20142;-72
2023/09/01 10:12:57;;;;;;;4.38;0.90;;;25.80;99.90;;;;;;4887247;29;20032;-72
2023/09/01 10:15:25;;;;;;;2.40;0.90;;;25.80;99.90;;;;;;4899167;29;20526;-72
2023/09/01 10:17:51;;;;;;;4.93;0.90;;;27.60;99.90;;;;;;4902172;29;20704;-72
2023/09/01 10:20:17;;;;;;;4.55;0.98;;;29.70;99.90;;;;;;4914862;29;20031;-71
2023/09/01 10:22:44;;;;;;;3.92;0.95;;;30.60;99.90;;;;;;4899065;29;20400;-71
2023/09/01 10:25:15;;;;;;;1.55;0.40;;;29.90;99.90;;;;;;4881844;29;20036;-71
2023/09/01 10:28:00;;;;;;;;;;;30.00;99.90;;;;;;4892851;29;20107;-71
2023/09/01 10:30:42;;;;;;;5.32;1.05;;;29.50;99.90;;;;;;4901719;29;20041;-74
2023/09/01 10:33:12;;;;;;;3.40;0.85;;;30.00;99.90;;;;;;4905966;29;20092;-73
2023/09/01 10:35:41;;;;;;;4.70;0.93;;;28.80;99.90;;;;;;4902678;29;20056;-78
2023/09/01 10:38:22;;;;;;;4.43;0.90;;;28.00;99.90;;;;;;4894557;29;20032;-73
2023/09/01 10:40:55;;;;;;;2.75;0.85;;;27.30;99.90;;;;;;4893512;29;20020;-74
2023/09/01 10:43:38;;;;;;;4.13;1.00;;;26.60;99.90;;;;;;4894078;29;20043;-74
2023/09/01 10:46:15;;;;;;;4.97;0.90;;;27.60;99.90;;;;;;4892066;29;20168;-73
2023/09/01 10:48:59;;;;;;;5.10;0.85;;;28.40;99.90;;;;;;4893543;29;20079;-74
2023/09/01 10:51:24;;;;;;;3.25;0.73;;;28.30;99.90;;;;;;4896835;29;20107;-74
2023/09/01 10:53:59;;;;;;;3.28;0.80;;;28.50;99.90;;;;;;4887315;29;20478;-74
2023/09/01 10:56:26;;;;;;;3.17;0.55;;;28.20;99.90;;;;;;4890992;29;20035;-74
2023/09/01 10:58:56;;;;;;;4.03;0.60;;;27.40;99.90;;;;;;4894293;29;20464;-74
2023/09/01 11:01:33;;;;;;;1.67;0.40;;;28.00;99.90;;;;;;4893667;29;20047;-74
2023/09/01 11:04:14;;;;;;;2.92;0.47;;;29.80;99.90;;;;;;4894918;29;20043;-74
2023/09/01 11:06:58;;;;;;;1.70;0.25;;;32.30;96.00;;;;;;4899390;29;20107;-74
2023/09/01 11:09:33;;;;;;;1.45;0.32;;;34.50;92.20;;;;;;4892127;29;20425;-74
2023/09/01 11:12:05;;;;;;;2.97;0.40;;;35.40;79.10;;;;;;4893054;29;20047;-74
2023/09/01 11:14:32;;;;;;;0.93;0.10;;;34.20;82.30;;;;;;4889834;29;20036;-75
2023/09/01 11:17:00;;;;;;;0.70;0.20;;;33.20;82.30;;;;;;4892184;29;20040;-74
2023/09/01 11:19:26;;;;;;;0.88;0.10;;;32.30;86.30;;;;;;4898943;29;20036;-74
2023/09/01 11:21:52;;;;;;;2.53;0.30;;;31.90;89.30;;;;;;4892666;29;20674;-74
2023/09/01 11:24:21;;;;;;;0.50;0.10;;;31.70;91.50;;;;;;4894183;29;20143;-74
2023/09/01 11:26:49;;;;;;;0.53;0.20;;;31.60;96.10;;;;;;4887431;29;20070;-74
2023/09/01 11:29:14;;;;;;;2.25;0.30;;;31.20;90.70;;;;;;4884509;29;20036;-74
2023/09/01 11:31:41;;;;;;;0.57;0.10;;;30.10;95.40;;;;;;4895318;29;20345;-74
2023/09/01 11:34:07;;;;;;;1.42;0.10;;;29.20;96.40;;;;;;4886965;29;20107;-74
2023/09/01 11:36:34;;;;;;;2.42;0.30;;;29.00;99.90;;;;;;4886582;29;21237;-74
2023/09/01 11:39:00;;;;;;;0.50;0.20;;;29.10;99.90;;;;;;4885150;29;20517;-74
2023/09/01 11:41:29;;;;;;;0.30;0.20;;;29.00;99.90;;;;;;4884906;29;20036;-74
2023/09/01 11:43:54;;;;;;;2.83;0.30;;;29.40;99.90;;;;;;4894210;29;20044;-75
2023/09/01 11:46:33;;;;;;;1.65;0.40;;;29.60;99.10;;;;;;4881502;29;20028;-74
2023/09/01 11:49:03;;;;;;;3.40;0.35;;;28.90;99.90;;;;;;4897722;29;20059;-74
2023/09/01 11:51:41;;;;;;;2.53;0.32;;;28.90;99.90;;;;;;4894557;29;20038;-74
2023/09/01 11:54:08;;;;;;;2.65;0.32;;;28.40;99.90;;;;;;4889441;29;20520;-74
2023/09/01 11:56:34;;;;;;;2.35;0.28;;;28.40;99.90;;;;;;4893325;29;20079;-73
2023/09/01 11:59:00;;;;;;;1.80;0.35;;;28.50;99.90;;;;;;4896767;29;20761;-74
2023/09/01 12:01:38;;;;;;;2.85;0.35;;;27.90;99.90;;;;;;4892319;29;20087;-75
2023/09/01 12:04:09;;;;;;;1.80;0.30;;;27.60;99.90;;;;;;4899184;29;20036;-74
2023/09/01 12:06:49;;;;;;;;;;;27.50;99.90;;;;;;4898854;29;20520;-74
2023/09/01 12:09:16;;;;;;;1.63;0.40;;;27.30;99.90;;;;;;4882887;29;19998;-74
2023/09/01 12:11:56;;;;;;;2.10;0.30;;;27.50;99.90;;;;;;4889888;29;20519;-74
2023/09/01 12:14:29;;;;;;;1.08;0.30;;;26.90;99.90;;;;;;4895752;29;20032;-74
2023/09/01 12:16:55;;;;;;;1.85;0.40;;;26.80;99.90;;;;;;4898177;29;20043;-74
2023/09/01 12:19:25;;;;;;;2.00;0.30;;;26.80;99.90;;;;;;4893412;29;20071;-74
2023/09/01 12:21:52;;;;;;;1.30;0.40;;;26.80;99.90;;;;;;4899512;29;20032;-74
2023/09/01 12:24:18;;;;;;;2.20;0.50;;;27.00;99.90;;;;;;4898915;29;20536;-74
2023/09/01 12:26:44;;;;;;;2.15;0.55;;;27.50;99.90;;;;;;4896139;29;20059;-74
2023/09/01 12:29:09;;;;;;;2.85;0.82;;;27.40;99.90;;;;;;4892648;29;20068;-74
2023/09/01 12:31:35;;;;;;;1.50;0.60;;;26.80;99.90;;;;;;4897561;29;20438;-74
2023/09/01 12:34:00;;;;;;;2.10;0.90;;;26.50;99.90;;;;;;4898993;29;20106;-75
2023/09/01 12:36:26;;;;;;;2.35;1.00;;;25.90;99.90;;;;;;4897608;29;20032;-74
2023/09/01 12:38:52;;;;;;;2.40;0.90;;;26.10;99.90;;;;;;4893753;29;20028;-74
2023/09/01 12:41:18;;;;;;;1.38;0.85;;;26.80;99.90;;;;;;4894460;29;20032;-74
2023/09/01 12:43:44;;;;;;;1.50;0.90;;;27.00;99.90;;;;;;4891191;29;20625;-74
2023/09/01 12:46:09;;;;;;;1.08;0.50;;;27.10;99.90;;;;;;4897225;29;20114;-74
2023/09/01 12:48:35;;;;;;;1.02;0.60;;;27.60;99.90;;;;;;4884462;29;20529;-74
2023/09/01 12:51:01;;;;;;;2.65;0.57;;;27.50;99.90;;;;;;4897043;29;20106;-74